CheckWX is a tool to help pilots better visualize weather data.  It is not intended as a substitute for an official pre-flight weather briefing.

23:49:19 UTC

KCOE METAR
Coeur D'alene - Pappy Boyington Field Airport
Coeur D'alene, Idaho, USA
Current

53 mins ago

KCOE 222256Z AUTO 28014KT 10SM FEW055 16/04 A3009 RMK AO2 SLP205 T01560039
Observed
Oct-22 @ 22:56 UTC
Wind
  • 280° at 14 KTS
Visibility
10 SM
Flight Rules
VFR
Cloud Levels
  • Few at 5,500' AGL
Temperature
16°C / 61°F
Dewpoint
C / 39°F
Humidity
45%
Altimeter
30.09" Hg
Pressure
1018.92 hPa
Previous

2 hours ago

KCOE 222156Z AUTO 32015G21KT 10SM BKN050 16/04 A3008 RMK AO2 SLP205 T01560044
Observed
Oct-22 @ 21:56 UTC
Wind
  • 320° at 15 KTS
  • Gusting to 21 KTS
Visibility
10 SM
Flight Rules
VFR
Cloud Levels
  • Broken at 5,000' AGL
Temperature
16°C / 61°F
Dewpoint
C / 39°F
Humidity
45%
Altimeter
30.08" Hg
Pressure
1018.62 hPa
Previous

3 hours ago

KCOE 222056Z AUTO 28016G20KT 10SM BKN046 BKN055 15/06 A3009 RMK AO2 SLP205 T01500056 53001
Observed
Oct-22 @ 20:56 UTC
Wind
  • 280° at 16 KTS
  • Gusting to 20 KTS
Visibility
10 SM
Flight Rules
VFR
Cloud Levels
  • Broken at 4,600' AGL
  • Broken at 5,500' AGL
Temperature
15°C / 59°F
Dewpoint
C / 43°F
Humidity
55%
Altimeter
30.09" Hg
Pressure
1018.92 hPa